Time;durP1;ratioP1;P1;durP2;ratioP2;P2;SDS_P1;SDS_P2;PMS_P1;PMS_P2;Temp;Humidity;BMP_temperature;BMP_pressure;BME280_temperature;BME280_humidity;BME280_pressure;Samples;Min_cycle;Max_cycle;Signal;HPM_P1;HPM_P2
2022/06/17 00:00:46;;;;;;;0.90;0.87;;;16.00;99.90;;;;;;4958954;28;20457;-83
2022/06/17 00:03:13;;;;;;;2.00;1.33;;;16.10;99.90;;;;;;4962692;28;20557;-82
2022/06/17 00:05:40;;;;;;;1.13;1.07;;;16.20;99.90;;;;;;4959143;28;21174;-85
2022/06/17 00:08:15;;;;;;;1.23;1.00;;;16.20;99.90;;;;;;4960585;28;20500;-83
2022/06/17 00:10:42;;;;;;;1.20;1.10;;;16.20;99.90;;;;;;4959440;28;20586;-84
2022/06/17 00:13:12;;;;;;;0.93;0.93;;;16.20;99.90;;;;;;4961562;28;20482;-82
2022/06/17 00:15:39;;;;;;;0.97;0.60;;;16.20;99.90;;;;;;4960342;28;20472;-82
2022/06/17 00:18:06;;;;;;;3.90;2.70;;;16.20;99.90;;;;;;4961167;28;20510;-82
2022/06/17 00:20:34;;;;;;;1.40;1.30;;;16.20;99.90;;;;;;4960001;28;20472;-83
2022/06/17 00:23:02;;;;;;;1.40;1.20;;;16.10;99.90;;;;;;4959639;28;20507;-83
2022/06/17 00:25:32;;;;;;;1.07;1.00;;;16.00;99.90;;;;;;4958826;28;20469;-83
2022/06/17 00:28:00;;;;;;;0.80;0.80;;;16.10;99.90;;;;;;4957630;28;20899;-83
2022/06/17 00:30:30;;;;;;;1.83;1.00;;;16.10;99.90;;;;;;4959599;28;20490;-83
2022/06/17 00:32:58;;;;;;;2.27;1.47;;;16.00;99.90;;;;;;4960807;28;20538;-82
2022/06/17 00:35:31;;;;;;;1.23;1.13;;;15.90;99.90;;;;;;4962080;28;20875;-84
2022/06/17 00:37:58;;;;;;;1.83;1.27;;;15.70;99.90;;;;;;4962850;28;20456;-83
2022/06/17 00:40:27;;;;;;;1.00;0.90;;;15.80;99.90;;;;;;4964911;28;20566;-83
2022/06/17 00:42:57;;;;;;;1.63;1.13;;;15.70;99.90;;;;;;4964154;28;20477;-83
2022/06/17 00:45:29;;;;;;;3.50;1.00;;;15.70;99.90;;;;;;4959172;28;20518;-84
2022/06/17 00:48:01;;;;;;;1.00;1.00;;;15.70;99.90;;;;;;4963786;28;20517;-83
2022/06/17 00:50:34;;;;;;;1.27;1.17;;;15.80;99.90;;;;;;4957948;28;20483;-83
2022/06/17 00:53:12;;;;;;;2.20;1.43;;;15.90;99.90;;;;;;4962058;28;21113;-83
2022/06/17 00:55:44;;;;;;;1.10;0.93;;;16.00;99.90;;;;;;4963381;28;20600;-83
2022/06/17 00:58:19;;;;;;;1.43;1.10;;;16.10;99.90;;;;;;4964562;28;20480;-84
2022/06/17 01:00:47;;;;;;;2.10;1.73;;;16.10;99.90;;;;;;4960735;28;20997;-84
2022/06/17 01:03:19;;;;;;;1.13;1.00;;;16.20;99.90;;;;;;4964032;28;20483;-83
2022/06/17 01:05:51;;;;;;;10.03;1.73;;;16.20;99.90;;;;;;4961055;28;20550;-84
2022/06/17 01:11:08;;;;;;;1.30;1.20;;;16.30;99.90;;;;;;4979907;28;20496;-83
2022/06/17 01:13:37;;;;;;;1.73;1.57;;;16.40;99.90;;;;;;4965161;28;20461;-83
2022/06/17 01:16:05;;;;;;;1.53;1.00;;;16.40;99.90;;;;;;4975378;28;20465;-82
2022/06/17 01:18:37;;;;;;;3.33;1.37;;;16.40;99.90;;;;;;4977559;28;20449;-83
2022/06/17 01:21:14;;;;;;;1.53;1.23;;;16.30;99.90;;;;;;4964041;28;20557;-84
2022/06/17 01:23:43;;;;;;;1.27;1.10;;;16.20;99.90;;;;;;4969930;28;20537;-83
2022/06/17 01:26:10;;;;;;;1.03;1.03;;;16.20;99.90;;;;;;4961970;28;21325;-83
2022/06/17 01:28:37;;;;;;;1.73;1.10;;;16.30;99.90;;;;;;4963048;28;20540;-83
2022/06/17 01:31:08;;;;;;;1.37;1.27;;;16.20;99.90;;;;;;4963386;28;20546;-84
2022/06/17 01:33:38;;;;;;;1.23;1.13;;;16.20;99.90;;;;;;4963237;28;20462;-84
2022/06/17 01:36:12;;;;;;;1.27;1.17;;;16.20;99.90;;;;;;4961606;28;20476;-83
2022/06/17 01:38:43;;;;;;;1.33;1.23;;;16.30;99.90;;;;;;4962808;28;20456;-83
2022/06/17 01:41:11;;;;;;;1.10;1.10;;;16.40;99.90;;;;;;4962865;28;21087;-84
2022/06/17 01:43:42;;;;;;;1.80;1.50;;;16.30;99.90;;;;;;4960622;28;20517;-83
2022/06/17 01:46:12;;;;;;;2.87;1.30;;;16.20;99.90;;;;;;4961025;28;20497;-83
2022/06/17 01:48:45;;;;;;;0.73;0.70;;;16.20;99.90;;;;;;4960556;28;20464;-83
2022/06/17 01:51:15;;;;;;;2.20;1.40;;;16.10;99.90;;;;;;4962844;28;20512;-84
2022/06/17 01:53:49;;;;;;;2.17;1.83;;;16.00;99.90;;;;;;4963197;28;20456;-83
2022/06/17 01:56:19;;;;;;;1.83;1.20;;;16.10;99.90;;;;;;4962091;28;20464;-82
2022/06/17 01:58:50;;;;;;;1.57;1.47;;;16.00;99.90;;;;;;4959549;28;21018;-84
2022/06/17 02:01:18;;;;;;;1.60;1.33;;;16.00;99.90;;;;;;4962215;28;20463;-85
2022/06/17 02:03:49;;;;;;;1.10;1.10;;;15.90;99.90;;;;;;4963849;28;20465;-83
2022/06/17 02:06:22;;;;;;;1.10;1.10;;;15.90;99.90;;;;;;4964566;28;20464;-83
2022/06/17 02:08:52;;;;;;;2.00;1.80;;;16.10;99.90;;;;;;4963871;28;20861;-83
2022/06/17 02:11:19;;;;;;;1.80;1.70;;;16.20;99.90;;;;;;4960282;28;20617;-84
2022/06/17 02:13:46;;;;;;;5.00;1.37;;;16.10;99.90;;;;;;4962704;28;20471;-85
2022/06/17 02:16:13;;;;;;;3.40;1.43;;;16.10;99.90;;;;;;4961681;28;20985;-84
2022/06/17 02:18:43;;;;;;;5.50;1.73;;;16.10;99.90;;;;;;4965130;28;20456;-83
2022/06/17 02:21:14;;;;;;;1.40;1.40;;;16.10;99.90;;;;;;4963589;28;20484;-82
2022/06/17 02:23:41;;;;;;;1.63;1.53;;;16.10;99.90;;;;;;4959936;28;20502;-83
2022/06/17 02:26:10;;;;;;;3.27;2.00;;;16.10;99.90;;;;;;4962245;28;20539;-83
2022/06/17 02:28:39;;;;;;;1.57;1.47;;;16.10;99.90;;;;;;4962452;28;20459;-83
2022/06/17 02:31:08;;;;;;;1.30;1.20;;;16.10;99.90;;;;;;4962854;28;20495;-84
2022/06/17 02:33:37;;;;;;;1.53;1.10;;;16.10;99.90;;;;;;4962889;28;20467;-82
2022/06/17 02:36:13;;;;;;;3.80;1.77;;;16.00;99.90;;;;;;4963266;28;20478;-83
2022/06/17 02:38:40;;;;;;;1.20;1.10;;;16.00;99.90;;;;;;4962700;28;20553;-84
2022/06/17 02:41:13;;;;;;;1.90;1.80;;;16.10;99.90;;;;;;4964356;28;20475;-83
2022/06/17 02:43:45;;;;;;;3.53;1.70;;;16.00;99.90;;;;;;4962462;28;20477;-83
2022/06/17 02:46:16;;;;;;;1.53;1.10;;;16.10;99.90;;;;;;4962399;28;20553;-83
2022/06/17 02:48:50;;;;;;;2.27;1.27;;;16.00;99.90;;;;;;4960816;28;20517;-83
2022/06/17 02:51:18;;;;;;;1.93;1.13;;;16.10;99.90;;;;;;4962099;28;20499;-85
2022/06/17 02:53:45;;;;;;;1.80;1.50;;;16.10;99.90;;;;;;4962586;28;20977;-84
2022/06/17 02:56:20;;;;;;;1.63;1.47;;;16.00;99.90;;;;;;4963609;28;20479;-83
2022/06/17 02:58:56;;;;;;;1.90;1.37;;;16.00;99.90;;;;;;4953602;28;20521;-83
2022/06/17 03:01:26;;;;;;;1.20;1.00;;;15.90;99.90;;;;;;4960291;28;20920;-83
2022/06/17 03:03:55;;;;;;;1.10;1.00;;;15.90;99.90;;;;;;4961139;28;20897;-84
2022/06/17 03:06:28;;;;;;;1.30;1.20;;;15.80;99.90;;;;;;4960960;28;20533;-84
2022/06/17 03:08:58;;;;;;;1.10;1.10;;;15.90;99.90;;;;;;4962879;28;21145;-83
2022/06/17 03:11:26;;;;;;;1.07;0.90;;;16.00;99.90;;;;;;4956898;28;20545;-83
2022/06/17 03:13:56;;;;;;;1.50;1.40;;;15.90;99.90;;;;;;4963011;28;20449;-85
2022/06/17 03:16:24;;;;;;;1.63;1.53;;;15.80;99.90;;;;;;4961889;28;20469;-83
2022/06/17 03:18:55;;;;;;;1.13;1.10;;;15.90;99.90;;;;;;4961461;28;20480;-83
2022/06/17 03:21:24;;;;;;;2.07;1.73;;;15.80;99.90;;;;;;4962680;28;20472;-82
2022/06/17 03:24:00;;;;;;;0.87;0.87;;;15.80;99.90;;;;;;4962375;28;21232;-83
2022/06/17 03:26:32;;;;;;;1.87;1.30;;;15.80;99.90;;;;;;4957842;28;20457;-83
2022/06/17 03:29:02;;;;;;;1.83;1.40;;;16.00;99.90;;;;;;4962536;28;20467;-83
2022/06/17 03:31:35;;;;;;;1.53;0.97;;;16.20;99.90;;;;;;4960864;28;20495;-84
2022/06/17 03:34:06;;;;;;;1.03;0.93;;;16.20;99.90;;;;;;4959840;28;20483;-83
2022/06/17 03:36:38;;;;;;;1.50;1.40;;;16.10;99.90;;;;;;4962808;28;20906;-82
2022/06/17 03:39:14;;;;;;;1.63;1.53;;;16.00;99.90;;;;;;4958810;28;20457;-83
2022/06/17 03:41:47;;;;;;;1.27;0.83;;;16.00;99.90;;;;;;4962729;28;21204;-83
2022/06/17 03:44:17;;;;;;;1.40;1.30;;;16.10;99.90;;;;;;4962102;28;20517;-82
2022/06/17 03:46:50;;;;;;;1.50;1.30;;;16.10;99.90;;;;;;4957934;28;21031;-83
2022/06/17 03:49:22;;;;;;;2.50;2.17;;;16.10;99.90;;;;;;4960642;28;20472;-83
2022/06/17 03:51:54;;;;;;;1.47;1.37;;;16.00;99.90;;;;;;4960048;28;21008;-84
2022/06/17 03:54:21;;;;;;;2.13;1.77;;;16.00;99.90;;;;;;4961494;28;20456;-85
2022/06/17 03:56:52;;;;;;;1.23;1.13;;;16.00;99.90;;;;;;4958746;28;20461;-83
2022/06/17 03:59:22;;;;;;;2.87;1.93;;;16.00;99.90;;;;;;4961495;28;20570;-85
2022/06/17 04:01:55;;;;;;;1.20;1.10;;;16.10;99.90;;;;;;4961940;28;20480;-82
2022/06/17 04:04:24;;;;;;;1.83;1.73;;;16.20;99.90;;;;;;4975546;28;20877;-82
2022/06/17 04:06:55;;;;;;;4.47;1.50;;;16.30;99.90;;;;;;4967060;28;20498;-83
2022/06/17 04:09:25;;;;;;;3.20;1.57;;;16.50;99.90;;;;;;4964166;28;20495;-83
2022/06/17 04:11:57;;;;;;;5.13;1.83;;;16.40;99.90;;;;;;4964710;28;20506;-85
2022/06/17 04:14:29;;;;;;;1.90;1.80;;;16.30;99.90;;;;;;4964420;28;20559;-83
2022/06/17 04:17:04;;;;;;;1.27;1.17;;;16.30;99.90;;;;;;4961182;28;20990;-85
2022/06/17 04:19:32;;;;;;;1.30;1.20;;;16.30;99.90;;;;;;4960961;28;20637;-82
2022/06/17 04:22:03;;;;;;;1.50;1.33;;;16.50;99.90;;;;;;4958670;28;20554;-83
2022/06/17 04:24:31;;;;;;;1.70;1.60;;;16.70;99.90;;;;;;4956968;28;20466;-85
2022/06/17 04:27:03;;;;;;;5.23;2.23;;;16.80;99.90;;;;;;4961923;28;20566;-86
2022/06/17 04:29:35;;;;;;;3.33;2.13;;;16.80;99.90;;;;;;4956941;28;20525;-83
2022/06/17 04:32:11;;;;;;;1.10;1.00;;;16.90;99.90;;;;;;4956625;28;20484;-84
2022/06/17 04:34:38;;;;;;;1.87;1.47;;;16.80;99.90;;;;;;4965038;28;20474;-83
2022/06/17 04:37:12;;;;;;;5.23;2.10;;;17.00;99.90;;;;;;4964363;28;20551;-86
2022/06/17 04:39:44;;;;;;;1.43;1.33;;;17.10;99.90;;;;;;4963230;28;20551;-84
2022/06/17 04:42:17;;;;;;;1.17;1.10;;;17.30;99.90;;;;;;4965024;28;20912;-84
2022/06/17 04:44:44;;;;;;;1.57;1.47;;;17.50;99.90;;;;;;4960587;28;20480;-83
2022/06/17 04:47:14;;;;;;;1.50;1.40;;;17.40;99.90;;;;;;4964650;28;20472;-83
2022/06/17 04:49:44;;;;;;;1.93;1.67;;;17.50;99.90;;;;;;4959620;28;20868;-83
2022/06/17 04:52:23;;;;;;;1.10;0.90;;;17.30;99.90;;;;;;4962124;28;20987;-84
2022/06/17 04:54:51;;;;;;;2.50;1.47;;;17.20;99.90;;;;;;4966221;28;20452;-86
2022/06/17 04:57:19;;;;;;;1.73;1.50;;;17.20;99.90;;;;;;4966302;28;20901;-84
2022/06/17 04:59:47;;;;;;;2.60;2.00;;;17.20;99.90;;;;;;4963708;28;20502;-84
2022/06/17 05:15:56;;;;;;;2.07;1.50;;;18.50;99.90;;;;;;4952912;28;21358;-84
2022/06/17 05:18:23;;;;;;;4.67;2.23;;;18.80;99.90;;;;;;4950740;28;21063;-86
2022/06/17 05:20:50;;;;;;;2.23;2.10;;;18.90;99.90;;;;;;4962752;28;20468;-85
2022/06/17 05:23:18;;;;;;;3.33;3.10;;;19.30;99.90;;;;;;4962515;28;20539;-84
2022/06/17 05:25:47;;;;;;;2.10;2.00;;;19.20;99.90;;;;;;4965778;28;20652;-85
2022/06/17 05:28:17;;;;;;;2.90;2.70;;;19.40;99.90;;;;;;4964530;28;20542;-87
2022/06/17 05:30:51;;;;;;;1.80;1.70;;;19.40;99.90;;;;;;4962248;28;20567;-86
2022/06/17 05:33:21;;;;;;;2.30;2.13;;;19.20;99.90;;;;;;4960300;28;20487;-85
2022/06/17 05:35:48;;;;;;;2.77;2.57;;;19.10;99.90;;;;;;4961743;28;20515;-85
2022/06/17 05:38:16;;;;;;;1.93;1.83;;;18.90;99.90;;;;;;4959502;28;20468;-84
2022/06/17 05:40:43;;;;;;;7.73;2.53;;;18.90;99.90;;;;;;4962715;28;20467;-82
2022/06/17 05:43:12;;;;;;;4.20;2.70;;;18.70;99.90;;;;;;4959107;28;20478;-82
2022/06/17 05:45:39;;;;;;;2.10;1.93;;;18.50;99.90;;;;;;4961813;28;21022;-83
2022/06/17 05:48:07;;;;;;;1.87;1.73;;;18.30;99.90;;;;;;4962094;28;20514;-83
2022/06/17 05:50:36;;;;;;;2.93;2.73;;;18.30;99.90;;;;;;4960078;28;21190;-82
2022/06/17 05:53:06;;;;;;;2.50;2.10;;;18.20;99.90;;;;;;4962730;28;20492;-83
2022/06/17 05:55:35;;;;;;;1.90;1.70;;;18.20;99.90;;;;;;4961003;28;20506;-83
2022/06/17 05:58:02;;;;;;;2.03;1.93;;;18.30;99.90;;;;;;4959785;28;20488;-83
2022/06/17 06:00:30;;;;;;;2.17;2.07;;;18.50;99.90;;;;;;4962170;28;20488;-83
2022/06/17 06:02:58;;;;;;;2.10;2.00;;;18.60;99.90;;;;;;4957724;28;20466;-83
2022/06/17 06:05:27;;;;;;;1.73;1.63;;;18.60;99.90;;;;;;4959514;28;20528;-83
2022/06/17 06:07:56;;;;;;;3.50;2.30;;;18.60;99.90;;;;;;4956300;28;20472;-84
2022/06/17 06:10:24;;;;;;;1.63;1.50;;;18.70;99.90;;;;;;4959139;28;20464;-84
2022/06/17 06:13:04;;;;;;;2.63;2.47;;;18.80;99.90;;;;;;4960778;28;20476;-84
2022/06/17 06:15:33;;;;;;;1.40;1.30;;;18.80;99.90;;;;;;4959475;28;21105;-83
2022/06/17 06:18:00;;;;;;;2.60;2.40;;;18.80;99.90;;;;;;4959390;28;20523;-83
2022/06/17 06:20:28;;;;;;;5.10;1.80;;;18.80;99.90;;;;;;4961721;28;20509;-83
2022/06/17 06:22:57;;;;;;;2.23;2.07;;;18.80;99.90;;;;;;4962964;28;20505;-82
2022/06/17 06:25:24;;;;;;;1.97;1.80;;;18.60;99.90;;;;;;4959301;28;20468;-85
2022/06/17 06:27:52;;;;;;;1.73;1.63;;;18.70;99.90;;;;;;4954958;28;20463;-85
2022/06/17 06:30:24;;;;;;;2.37;2.17;;;18.80;99.90;;;;;;4954500;28;20473;-85
2022/06/17 06:32:54;;;;;;;5.10;2.23;;;19.40;99.90;;;;;;4960507;28;20495;-85
2022/06/17 06:35:23;;;;;;;2.87;1.60;;;20.10;99.90;;;;;;4955463;28;20491;-83
2022/06/17 06:37:51;;;;;;;2.13;1.80;;;20.60;99.90;;;;;;4956621;28;20462;-83
2022/06/17 06:40:21;;;;;;;2.23;1.93;;;20.50;99.90;;;;;;4956788;28;20930;-83
2022/06/17 06:42:50;;;;;;;2.27;1.97;;;20.10;99.90;;;;;;4959785;28;20475;-84
2022/06/17 06:45:20;;;;;;;1.77;1.67;;;20.70;99.90;;;;;;4958976;28;20884;-84
2022/06/17 06:47:48;;;;;;;2.30;2.10;;;21.10;99.90;;;;;;4961216;28;20460;-85
2022/06/17 06:50:18;;;;;;;2.27;2.17;;;21.00;99.90;;;;;;4960769;28;20541;-84
2022/06/17 06:52:45;;;;;;;1.83;1.73;;;20.90;99.90;;;;;;4956490;28;20552;-86
2022/06/17 06:55:13;;;;;;;1.90;1.80;;;20.50;99.90;;;;;;4957817;28;20464;-85
2022/06/17 06:57:46;;;;;;;1.90;1.80;;;20.30;99.90;;;;;;4960313;28;20493;-84
2022/06/17 07:00:16;;;;;;;4.10;1.53;;;20.10;99.90;;;;;;4968294;28;21345;-85
2022/06/17 07:02:43;;;;;;;3.40;1.50;;;20.10;99.90;;;;;;4959409;28;20477;-85
2022/06/17 07:05:11;;;;;;;1.83;1.73;;;20.20;99.90;;;;;;4962332;28;20510;-83
2022/06/17 07:07:38;;;;;;;2.10;1.90;;;20.60;99.00;;;;;;4962150;28;20490;-84
2022/06/17 07:10:06;;;;;;;3.07;1.90;;;21.20;99.10;;;;;;4960206;28;20522;-86
2022/06/17 07:12:33;;;;;;;2.80;2.60;;;21.80;97.60;;;;;;4951575;28;20504;-84
2022/06/17 07:15:02;;;;;;;3.60;1.30;;;21.90;97.60;;;;;;4954698;28;20518;-85
2022/06/17 07:17:29;;;;;;;1.73;1.63;;;21.40;95.00;;;;;;4957452;28;20464;-86
2022/06/17 07:19:56;;;;;;;2.30;1.33;;;21.00;94.30;;;;;;4959063;28;20459;-85
2022/06/17 07:22:23;;;;;;;1.73;1.63;;;20.80;94.70;;;;;;4956466;28;20688;-85
2022/06/17 07:24:50;;;;;;;1.93;1.20;;;20.50;95.30;;;;;;4960482;28;21364;-85
2022/06/17 07:27:19;;;;;;;2.27;1.20;;;20.40;94.90;;;;;;4955071;28;20923;-84
2022/06/17 07:29:46;;;;;;;1.43;1.33;;;20.20;94.30;;;;;;4954662;28;20803;-86
2022/06/17 07:32:16;;;;;;;1.80;1.57;;;20.10;94.60;;;;;;4958951;28;21017;-93
2022/06/17 07:34:45;;;;;;;1.83;1.67;;;20.20;95.70;;;;;;4959276;28;20964;-93
2022/06/17 07:39:58;;;;;;;2.57;1.43;;;21.30;94.50;;;;;;4959908;28;20455;-84
2022/06/17 07:42:37;;;;;;;1.60;1.50;;;21.60;92.50;;;;;;4956687;28;21754;-84
2022/06/17 07:45:06;;;;;;;1.90;1.33;;;22.10;91.30;;;;;;4956081;28;20469;-84
2022/06/17 07:47:34;;;;;;;1.63;1.53;;;22.20;90.80;;;;;;4953868;28;20468;-83
2022/06/17 07:50:01;;;;;;;3.60;1.83;;;22.30;90.10;;;;;;4959514;28;20469;-84
2022/06/17 07:52:28;;;;;;;1.60;1.50;;;21.70;90.40;;;;;;4958881;28;20495;-84
2022/06/17 07:54:55;;;;;;;1.67;1.57;;;21.80;90.30;;;;;;4954425;28;20468;-83
2022/06/17 07:57:22;;;;;;;1.57;1.47;;;22.30;92.60;;;;;;4957182;28;20487;-84
2022/06/17 07:59:49;;;;;;;1.23;1.07;;;22.70;89.40;;;;;;4959365;28;20526;-84
2022/06/17 08:02:16;;;;;;;1.80;1.70;;;23.10;89.10;;;;;;4958223;28;20472;-84
2022/06/17 08:04:45;;;;;;;2.60;1.70;;;23.00;89.40;;;;;;4959158;28;20595;-85
2022/06/17 08:07:12;;;;;;;2.37;1.60;;;23.30;88.90;;;;;;4960337;28;20472;-84
2022/06/17 08:09:39;;;;;;;1.40;1.10;;;22.50;87.60;;;;;;4961865;28;20530;-84
2022/06/17 08:12:11;;;;;;;4.00;1.73;;;23.00;90.00;;;;;;4956879;28;20549;-84
2022/06/17 08:14:43;;;;;;;4.63;1.70;;;23.30;88.10;;;;;;4960887;28;20449;-85
2022/06/17 08:17:12;;;;;;;1.57;1.00;;;23.10;86.70;;;;;;4957988;28;20556;-85
2022/06/17 08:19:39;;;;;;;3.63;1.50;;;22.80;85.30;;;;;;4956971;28;20468;-84
2022/06/17 08:22:08;;;;;;;6.20;1.30;;;22.80;87.00;;;;;;4955455;28;22629;-84
2022/06/17 08:24:35;;;;;;;1.23;1.13;;;22.60;87.30;;;;;;4957554;28;20452;-84
2022/06/17 08:27:03;;;;;;;1.77;1.63;;;22.80;84.90;;;;;;4956845;28;20613;-85
2022/06/17 08:29:30;;;;;;;1.60;1.47;;;23.00;83.00;;;;;;4950538;28;20453;-85
2022/06/17 08:32:45;;;;;;;3.53;1.50;;;22.70;82.30;;;;;;4953978;28;20918;-85
2022/06/17 08:34:45;;;;;;;1.77;1.67;;;22.50;82.20;;;;;;4957418;28;20826;-84
2022/06/17 08:37:15;;;;;;;1.40;1.30;;;22.40;82.80;;;;;;4957277;28;20472;-84
2022/06/17 08:39:43;;;;;;;1.87;1.50;;;22.20;83.90;;;;;;4957634;28;20591;-84
2022/06/17 08:42:25;;;;;;;1.53;1.43;;;22.60;82.50;;;;;;4950969;28;20476;-84
2022/06/17 08:45:00;;;;;;;1.70;1.10;;;22.80;82.70;;;;;;4953519;28;20519;-85
2022/06/17 08:47:51;;;;;;;1.93;1.77;;;22.60;85.30;;;;;;4956381;28;20468;-84
2022/06/17 08:50:43;;;;;;;1.67;1.57;;;22.90;84.40;;;;;;4954448;28;21038;-83
2022/06/17 08:53:43;;;;;;;1.90;1.50;;;23.30;85.20;;;;;;4958341;28;20570;-85
2022/06/17 08:56:18;;;;;;;1.63;1.53;;;23.20;80.20;;;;;;4958428;28;20472;-85
2022/06/17 08:58:57;;;;;;;1.23;1.13;;;23.20;82.30;;;;;;4966024;28;20491;-84
2022/06/17 09:01:32;;;;;;;2.53;1.47;;;23.40;82.90;;;;;;4958058;28;20533;-84
2022/06/17 09:04:11;;;;;;;1.50;1.40;;;23.10;79.30;;;;;;4959512;28;20877;-84
2022/06/17 09:06:49;;;;;;;1.67;1.57;;;23.10;81.50;;;;;;4955493;28;20464;-84
2022/06/17 09:09:34;;;;;;;1.27;1.17;;;23.20;79.80;;;;;;4957276;28;21178;-84
2022/06/17 09:12:11;;;;;;;2.00;1.70;;;23.20;79.60;;;;;;4959445;28;20548;-85
2022/06/17 09:14:50;;;;;;;1.20;1.10;;;23.60;80.40;;;;;;4962957;28;20512;-86
2022/06/17 09:17:27;;;;;;;1.47;1.37;;;23.70;78.60;;;;;;4956267;28;20530;-84
2022/06/17 09:19:59;;;;;;;3.03;1.00;;;23.70;80.80;;;;;;4962892;28;20471;-84
2022/06/17 09:22:28;;;;;;;2.13;1.33;;;23.60;78.30;;;;;;4963892;28;20535;-85
2022/06/17 09:25:02;;;;;;;5.73;1.90;;;23.80;78.40;;;;;;4962889;28;20468;-85
2022/06/17 09:27:34;;;;;;;1.70;1.33;;;23.40;78.20;;;;;;4958609;28;20889;-84
2022/06/17 09:30:05;;;;;;;4.63;2.10;;;23.70;78.40;;;;;;4962908;28;20541;-86
2022/06/17 09:32:45;;;;;;;1.87;1.77;;;23.70;77.80;;;;;;4962385;28;20530;-85
2022/06/17 09:35:18;;;;;;;2.63;1.83;;;23.90;78.30;;;;;;4958575;28;20464;-86
2022/06/17 09:37:51;;;;;;;4.50;2.60;;;24.20;77.10;;;;;;4960376;28;20522;-85
2022/06/17 09:40:24;;;;;;;1.53;1.30;;;24.00;75.30;;;;;;4958942;28;20520;-86
2022/06/17 09:42:59;;;;;;;1.63;1.50;;;23.90;79.30;;;;;;4957779;28;20541;-87
2022/06/17 09:45:34;;;;;;;2.47;2.27;;;24.10;78.30;;;;;;4964085;28;21011;-85
2022/06/17 09:48:09;;;;;;;4.90;1.70;;;24.40;75.10;;;;;;4954631;28;21078;-85
2022/06/17 09:50:41;;;;;;;2.97;2.10;;;24.30;79.40;;;;;;4960548;28;20463;-85
2022/06/17 09:53:15;;;;;;;6.93;2.40;;;24.40;78.30;;;;;;4967243;28;20498;-86
2022/06/17 09:55:47;;;;;;;3.33;3.07;;;24.30;77.00;;;;;;4978294;28;20472;-85
2022/06/17 09:58:22;;;;;;;1.57;1.47;;;24.40;81.40;;;;;;4977180;28;20500;-85
2022/06/17 10:00:52;;;;;;;2.20;2.00;;;24.60;78.20;;;;;;4966289;28;20495;-85
2022/06/17 10:03:24;;;;;;;1.23;1.23;;;24.70;76.20;;;;;;4967164;28;20477;-86
2022/06/17 10:06:05;;;;;;;2.70;1.70;;;24.80;77.00;;;;;;4955490;28;20514;-85
2022/06/17 10:08:45;;;;;;;1.60;1.50;;;24.70;80.40;;;;;;4960217;28;20494;-85
2022/06/17 10:11:18;;;;;;;1.43;1.43;;;24.90;80.30;;;;;;4962751;28;20834;-86
2022/06/17 10:13:53;;;;;;;1.73;1.63;;;25.00;77.20;;;;;;4964901;28;20581;-86
2022/06/17 10:19:27;;;;;;;4.10;2.33;;;25.10;78.10;;;;;;4965257;28;20475;-85
2022/06/17 10:22:05;;;;;;;1.50;1.40;;;25.40;78.80;;;;;;4960478;28;20472;-86
2022/06/17 10:24:50;;;;;;;2.17;1.50;;;25.30;80.00;;;;;;4953266;28;20472;-86
2022/06/17 10:27:30;;;;;;;2.60;1.77;;;25.30;78.30;;;;;;4959300;28;20472;-86
2022/06/17 10:30:06;;;;;;;1.77;1.67;;;25.20;75.90;;;;;;4952057;28;20477;-86
2022/06/17 10:32:37;;;;;;;2.33;2.13;;;25.10;76.50;;;;;;4960235;28;20623;-86
2022/06/17 10:35:06;;;;;;;1.87;1.53;;;24.80;75.80;;;;;;4963064;28;20499;-85
2022/06/17 10:37:36;;;;;;;2.07;1.67;;;24.70;74.60;;;;;;4963301;28;20536;-86
2022/06/17 10:40:05;;;;;;;2.13;2.03;;;24.80;77.00;;;;;;4960296;28;20472;-86
2022/06/17 10:42:34;;;;;;;2.20;1.90;;;24.90;75.30;;;;;;4953996;28;20462;-86
2022/06/17 10:45:02;;;;;;;2.13;1.53;;;25.10;75.90;;;;;;4957134;28;20492;-84
2022/06/17 10:47:36;;;;;;;2.50;2.40;;;25.30;80.20;;;;;;4964806;28;20539;-87
2022/06/17 10:50:10;;;;;;;2.97;2.27;;;25.60;75.20;;;;;;4961505;28;20877;-86
2022/06/17 10:52:42;;;;;;;2.40;2.20;;;25.40;74.70;;;;;;4955961;28;20513;-86
2022/06/17 10:55:16;;;;;;;3.67;1.63;;;25.40;80.50;;;;;;4953658;28;20571;-86
2022/06/17 10:58:07;;;;;;;2.23;2.03;;;25.20;78.30;;;;;;4958021;28;20487;-86
2022/06/17 11:00:34;;;;;;;2.47;2.27;;;25.60;81.70;;;;;;4949837;28;20457;-86
2022/06/17 11:03:17;;;;;;;2.63;2.07;;;25.50;81.00;;;;;;4957396;28;20472;-86
2022/06/17 11:05:54;;;;;;;2.03;1.93;;;25.70;80.90;;;;;;4959926;28;20449;-87
2022/06/17 11:08:24;;;;;;;2.03;1.93;;;25.90;74.00;;;;;;4959761;28;21071;-86
2022/06/17 11:10:54;;;;;;;1.90;1.80;;;25.70;75.40;;;;;;4958289;28;20537;-86
2022/06/17 11:13:23;;;;;;;2.20;2.07;;;25.70;77.00;;;;;;4961058;28;21000;-86
2022/06/17 11:15:54;;;;;;;2.80;2.20;;;26.00;76.90;;;;;;4960877;28;20457;-87
2022/06/17 11:18:25;;;;;;;2.57;2.40;;;25.60;77.30;;;;;;4959242;28;20518;-86
2022/06/17 11:20:58;;;;;;;2.23;1.87;;;25.60;77.00;;;;;;4958537;28;21064;-87
2022/06/17 11:23:29;;;;;;;1.90;1.60;;;25.50;81.90;;;;;;4963128;28;20456;-87
2022/06/17 11:26:10;;;;;;;2.57;2.37;;;25.80;74.80;;;;;;4955542;28;20591;-86
2022/06/17 11:28:41;;;;;;;1.97;1.77;;;26.00;75.40;;;;;;4957547;28;20456;-87
2022/06/17 11:31:14;;;;;;;3.27;2.97;;;26.30;79.80;;;;;;4959288;28;21083;-86
2022/06/17 11:33:57;;;;;;;3.53;1.60;;;26.20;73.50;;;;;;4959518;28;20495;-86
2022/06/17 11:36:27;;;;;;;2.60;1.80;;;26.20;77.50;;;;;;4961706;28;20555;-86
2022/06/17 11:38:56;;;;;;;1.77;1.67;;;26.00;72.10;;;;;;4960160;28;20523;-86
2022/06/17 11:41:26;;;;;;;2.00;1.90;;;26.20;79.10;;;;;;4957875;28;20538;-86
2022/06/17 11:43:56;;;;;;;1.77;1.67;;;26.40;72.40;;;;;;4957442;28;20463;-87
2022/06/17 11:46:28;;;;;;;1.93;1.70;;;26.10;71.50;;;;;;4960031;28;21016;-93
2022/06/17 11:48:58;;;;;;;2.00;1.87;;;25.80;71.40;;;;;;4959658;28;21284;-86
2022/06/17 11:51:29;;;;;;;2.40;2.20;;;25.80;70.80;;;;;;4958607;28;20869;-85
2022/06/17 11:53:59;;;;;;;1.03;0.93;;;26.10;76.90;;;;;;4959719;28;20499;-86
2022/06/17 11:56:32;;;;;;;1.43;1.33;;;25.90;69.70;;;;;;4960567;28;20476;-86
2022/06/17 11:59:07;;;;;;;7.23;1.93;;;25.80;70.40;;;;;;4958227;28;20501;-87
2022/06/17 12:01:35;;;;;;;1.77;1.67;;;25.60;67.40;;;;;;4959824;28;20542;-86
2022/06/17 12:04:02;;;;;;;2.17;2.07;;;25.60;66.80;;;;;;4960477;28;20472;-86
2022/06/17 12:06:30;;;;;;;2.93;1.67;;;25.70;68.80;;;;;;4953645;28;20514;-86
2022/06/17 12:09:09;;;;;;;2.30;1.90;;;26.20;72.40;;;;;;4958292;28;20522;-85
2022/06/17 12:11:45;;;;;;;1.57;1.47;;;26.50;70.40;;;;;;4960352;28;20472;-86
2022/06/17 12:14:21;;;;;;;1.83;1.53;;;26.40;70.10;;;;;;4956636;28;20484;-86
2022/06/17 12:16:49;;;;;;;1.63;1.53;;;26.60;70.00;;;;;;4959260;28;20472;-89
2022/06/17 12:19:21;;;;;;;2.33;1.37;;;26.10;67.50;;;;;;4958922;28;21270;-85
2022/06/17 12:21:57;;;;;;;1.27;1.23;;;26.20;69.70;;;;;;4959476;28;20460;-85
2022/06/17 12:24:38;;;;;;;1.30;1.20;;;26.00;67.10;;;;;;4959051;28;20560;-86
2022/06/17 12:27:18;;;;;;;1.50;1.40;;;25.80;67.20;;;;;;4955697;28;20460;-86
2022/06/17 12:29:52;;;;;;;1.40;1.30;;;26.00;68.20;;;;;;4961311;28;20452;-86
2022/06/17 12:32:25;;;;;;;2.80;1.13;;;26.10;67.70;;;;;;4961486;28;20472;-86
2022/06/17 12:35:03;;;;;;;1.77;1.67;;;26.50;67.60;;;;;;4964145;28;20488;-86
2022/06/17 12:37:38;;;;;;;1.47;1.30;;;26.80;70.30;;;;;;4959887;28;20536;-86
2022/06/17 12:40:09;;;;;;;1.17;1.00;;;26.60;69.00;;;;;;4963452;28;21479;-86
2022/06/17 12:42:45;;;;;;;3.27;1.80;;;26.30;65.50;;;;;;4952972;28;20926;-86
2022/06/17 12:45:20;;;;;;;2.33;1.83;;;26.50;65.70;;;;;;4960999;28;20479;-86
2022/06/17 12:48:09;;;;;;;1.23;1.13;;;26.60;66.90;;;;;;4965171;28;20521;-87
2022/06/17 12:53:39;;;;;;;1.47;1.40;;;26.80;65.80;;;;;;4966932;28;20973;-86
2022/06/17 12:56:17;;;;;;;1.97;1.77;;;26.70;64.50;;;;;;4969852;28;20464;-86
2022/06/17 12:59:09;;;;;;;1.20;1.10;;;26.20;61.30;;;;;;4955026;28;21043;-87
2022/06/17 13:01:43;;;;;;;2.40;1.10;;;26.20;62.50;;;;;;4958458;28;20526;-86
2022/06/17 13:04:26;;;;;;;1.20;1.10;;;26.60;60.70;;;;;;4966737;28;20457;-87
2022/06/17 13:07:12;;;;;;;0.87;0.87;;;27.10;64.90;;;;;;4965791;28;20471;-87
2022/06/17 13:09:48;;;;;;;1.13;1.10;;;27.30;58.90;;;;;;4967449;28;20884;-86
2022/06/17 13:12:21;;;;;;;1.50;1.00;;;27.20;60.00;;;;;;4970999;28;20515;-87
2022/06/17 13:14:56;;;;;;;1.00;0.90;;;27.20;59.50;;;;;;4956327;28;20500;-87
2022/06/17 13:17:31;;;;;;;1.47;1.00;;;26.60;57.80;;;;;;4956914;28;20539;-87
2022/06/17 13:20:06;;;;;;;1.30;1.20;;;26.00;56.20;;;;;;4966472;28;20471;-86
2022/06/17 13:22:42;;;;;;;1.33;0.73;;;26.20;57.80;;;;;;4958649;28;20480;-86
2022/06/17 13:25:21;;;;;;;2.00;0.93;;;26.40;58.50;;;;;;4963602;28;20501;-87
2022/06/17 13:27:58;;;;;;;0.90;0.90;;;26.70;59.10;;;;;;4953732;28;20809;-86
2022/06/17 13:30:30;;;;;;;0.97;0.83;;;27.10;59.00;;;;;;4954612;28;20444;-87
2022/06/17 13:33:04;;;;;;;2.83;0.90;;;26.90;58.70;;;;;;4959868;28;20463;-86
2022/06/17 13:35:36;;;;;;;0.80;0.70;;;26.80;56.40;;;;;;4957228;28;20496;-86